sensor_id;sensor_type;location;lat;lon;timestamp;P1;durP1;ratioP1;P2;durP2;ratioP2
21352;SDS011;10834;52.268;6.770;2023-12-28T00:01:53;4.57;;;1.67;;
21352;SDS011;10834;52.268;6.770;2023-12-28T00:04:37;2.40;;;1.63;;
21352;SDS011;10834;52.268;6.770;2023-12-28T00:07:21;2.43;;;2.00;;
21352;SDS011;10834;52.268;6.770;2023-12-28T00:10:05;4.63;;;1.90;;
21352;SDS011;10834;52.268;6.770;2023-12-28T00:12:50;3.87;;;1.63;;
21352;SDS011;10834;52.268;6.770;2023-12-28T00:15:34;3.43;;;1.80;;
21352;SDS011;10834;52.268;6.770;2023-12-28T00:18:18;3.07;;;1.90;;
21352;SDS011;10834;52.268;6.770;2023-12-28T00:21:03;5.30;;;2.00;;
21352;SDS011;10834;52.268;6.770;2023-12-28T00:23:47;3.17;;;1.73;;
21352;SDS011;10834;52.268;6.770;2023-12-28T00:26:31;3.80;;;1.87;;
21352;SDS011;10834;52.268;6.770;2023-12-28T00:29:15;9.63;;;2.20;;
21352;SDS011;10834;52.268;6.770;2023-12-28T00:32:00;2.23;;;1.67;;
21352;SDS011;10834;52.268;6.770;2023-12-28T00:34:44;2.30;;;1.93;;
21352;SDS011;10834;52.268;6.770;2023-12-28T00:37:28;3.17;;;2.40;;
21352;SDS011;10834;52.268;6.770;2023-12-28T00:40:13;2.40;;;1.90;;
21352;SDS011;10834;52.268;6.770;2023-12-28T00:42:57;3.30;;;1.97;;
21352;SDS011;10834;52.268;6.770;2023-12-28T00:45:41;2.63;;;1.90;;
21352;SDS011;10834;52.268;6.770;2023-12-28T00:48:26;2.07;;;1.87;;
21352;SDS011;10834;52.268;6.770;2023-12-28T00:51:10;3.53;;;1.70;;
21352;SDS011;10834;52.268;6.770;2023-12-28T00:53:54;2.40;;;2.00;;
21352;SDS011;10834;52.268;6.770;2023-12-28T00:56:39;4.60;;;1.83;;
21352;SDS011;10834;52.268;6.770;2023-12-28T00:59:23;3.70;;;1.90;;
21352;SDS011;10834;52.268;6.770;2023-12-28T01:02:07;1.80;;;1.57;;
21352;SDS011;10834;52.268;6.770;2023-12-28T01:04:51;4.53;;;1.83;;
21352;SDS011;10834;52.268;6.770;2023-12-28T01:07:35;3.40;;;2.40;;
21352;SDS011;10834;52.268;6.770;2023-12-28T01:10:19;2.27;;;1.90;;
21352;SDS011;10834;52.268;6.770;2023-12-28T01:13:03;2.93;;;2.07;;
21352;SDS011;10834;52.268;6.770;2023-12-28T01:15:48;2.80;;;2.23;;
21352;SDS011;10834;52.268;6.770;2023-12-28T01:18:32;3.40;;;2.37;;
21352;SDS011;10834;52.268;6.770;2023-12-28T01:21:16;2.53;;;1.97;;
21352;SDS011;10834;52.268;6.770;2023-12-28T01:24:01;4.57;;;2.40;;
21352;SDS011;10834;52.268;6.770;2023-12-28T01:26:45;2.77;;;2.40;;
21352;SDS011;10834;52.268;6.770;2023-12-28T01:29:30;4.30;;;2.20;;
21352;SDS011;10834;52.268;6.770;2023-12-28T01:32:14;2.93;;;2.10;;
21352;SDS011;10834;52.268;6.770;2023-12-28T01:34:59;3.07;;;2.00;;
21352;SDS011;10834;52.268;6.770;2023-12-28T01:37:43;5.40;;;2.20;;
21352;SDS011;10834;52.268;6.770;2023-12-28T01:40:27;4.00;;;2.00;;
21352;SDS011;10834;52.268;6.770;2023-12-28T01:43:11;2.37;;;2.00;;
21352;SDS011;10834;52.268;6.770;2023-12-28T01:45:55;2.13;;;1.80;;
21352;SDS011;10834;52.268;6.770;2023-12-28T01:48:39;2.27;;;1.80;;
21352;SDS011;10834;52.268;6.770;2023-12-28T01:51:24;2.77;;;2.03;;
21352;SDS011;10834;52.268;6.770;2023-12-28T01:54:09;3.60;;;1.90;;
21352;SDS011;10834;52.268;6.770;2023-12-28T01:56:53;2.53;;;2.33;;
21352;SDS011;10834;52.268;6.770;2023-12-28T01:59:38;3.07;;;1.80;;
21352;SDS011;10834;52.268;6.770;2023-12-28T02:02:23;2.57;;;2.33;;
21352;SDS011;10834;52.268;6.770;2023-12-28T02:05:08;2.10;;;1.90;;
21352;SDS011;10834;52.268;6.770;2023-12-28T02:07:54;2.03;;;1.90;;
21352;SDS011;10834;52.268;6.770;2023-12-28T02:10:38;2.80;;;2.30;;
21352;SDS011;10834;52.268;6.770;2023-12-28T02:13:23;4.50;;;2.00;;
21352;SDS011;10834;52.268;6.770;2023-12-28T02:16:13;2.67;;;2.33;;
21352;SDS011;10834;52.268;6.770;2023-12-28T02:19:10;2.63;;;2.07;;
21352;SDS011;10834;52.268;6.770;2023-12-28T02:22:08;2.60;;;2.40;;
21352;SDS011;10834;52.268;6.770;2023-12-28T02:27:52;4.80;;;2.70;;
21352;SDS011;10834;52.268;6.770;2023-12-28T02:30:36;4.63;;;2.80;;
21352;SDS011;10834;52.268;6.770;2023-12-28T02:33:33;3.23;;;2.30;;
21352;SDS011;10834;52.268;6.770;2023-12-28T02:36:25;3.40;;;2.50;;
21352;SDS011;10834;52.268;6.770;2023-12-28T02:39:11;2.63;;;2.30;;
21352;SDS011;10834;52.268;6.770;2023-12-28T02:41:58;3.77;;;2.20;;
21352;SDS011;10834;52.268;6.770;2023-12-28T02:44:43;4.80;;;3.00;;
21352;SDS011;10834;52.268;6.770;2023-12-28T02:47:27;2.87;;;2.13;;
21352;SDS011;10834;52.268;6.770;2023-12-28T02:50:11;5.00;;;2.40;;
21352;SDS011;10834;52.268;6.770;2023-12-28T02:52:55;3.57;;;2.40;;
21352;SDS011;10834;52.268;6.770;2023-12-28T02:55:40;3.10;;;2.13;;
21352;SDS011;10834;52.268;6.770;2023-12-28T02:58:24;3.23;;;2.80;;
21352;SDS011;10834;52.268;6.770;2023-12-28T03:01:08;3.10;;;2.33;;
21352;SDS011;10834;52.268;6.770;2023-12-28T03:03:52;3.33;;;2.73;;
21352;SDS011;10834;52.268;6.770;2023-12-28T03:06:36;3.80;;;3.17;;
21352;SDS011;10834;52.268;6.770;2023-12-28T03:09:22;3.53;;;2.57;;
21352;SDS011;10834;52.268;6.770;2023-12-28T03:12:06;3.73;;;2.53;;
21352;SDS011;10834;52.268;6.770;2023-12-28T03:14:50;3.83;;;2.90;;
21352;SDS011;10834;52.268;6.770;2023-12-28T03:17:34;6.00;;;2.50;;
21352;SDS011;10834;52.268;6.770;2023-12-28T03:20:20;3.20;;;2.60;;
21352;SDS011;10834;52.268;6.770;2023-12-28T03:23:04;2.70;;;2.33;;
21352;SDS011;10834;52.268;6.770;2023-12-28T03:25:48;5.43;;;3.57;;
21352;SDS011;10834;52.268;6.770;2023-12-28T03:28:34;3.30;;;2.70;;
21352;SDS011;10834;52.268;6.770;2023-12-28T03:31:18;3.10;;;2.80;;
21352;SDS011;10834;52.268;6.770;2023-12-28T03:34:02;4.40;;;2.97;;
21352;SDS011;10834;52.268;6.770;2023-12-28T03:36:46;8.10;;;3.23;;
21352;SDS011;10834;52.268;6.770;2023-12-28T03:39:30;3.83;;;2.90;;
21352;SDS011;10834;52.268;6.770;2023-12-28T03:42:14;2.73;;;2.10;;
21352;SDS011;10834;52.268;6.770;2023-12-28T03:44:58;3.10;;;2.80;;
21352;SDS011;10834;52.268;6.770;2023-12-28T03:47:42;4.20;;;2.43;;
21352;SDS011;10834;52.268;6.770;2023-12-28T03:50:27;4.23;;;3.23;;
21352;SDS011;10834;52.268;6.770;2023-12-28T03:53:11;7.23;;;2.70;;
21352;SDS011;10834;52.268;6.770;2023-12-28T03:55:55;3.93;;;3.13;;
21352;SDS011;10834;52.268;6.770;2023-12-28T03:58:39;3.97;;;2.93;;
21352;SDS011;10834;52.268;6.770;2023-12-28T04:01:23;3.33;;;2.33;;
21352;SDS011;10834;52.268;6.770;2023-12-28T04:04:07;4.00;;;2.23;;
21352;SDS011;10834;52.268;6.770;2023-12-28T04:06:52;3.17;;;2.47;;
21352;SDS011;10834;52.268;6.770;2023-12-28T04:09:36;3.57;;;2.73;;
21352;SDS011;10834;52.268;6.770;2023-12-28T04:12:20;4.83;;;2.57;;
21352;SDS011;10834;52.268;6.770;2023-12-28T04:15:04;7.10;;;3.03;;
21352;SDS011;10834;52.268;6.770;2023-12-28T04:17:49;4.77;;;2.60;;
21352;SDS011;10834;52.268;6.770;2023-12-28T04:20:33;5.03;;;2.30;;
21352;SDS011;10834;52.268;6.770;2023-12-28T04:23:17;2.80;;;2.27;;
21352;SDS011;10834;52.268;6.770;2023-12-28T04:26:01;3.80;;;2.83;;
21352;SDS011;10834;52.268;6.770;2023-12-28T04:28:46;6.47;;;2.53;;
21352;SDS011;10834;52.268;6.770;2023-12-28T04:31:31;3.67;;;2.63;;
21352;SDS011;10834;52.268;6.770;2023-12-28T04:34:15;3.03;;;2.30;;
21352;SDS011;10834;52.268;6.770;2023-12-28T04:36:59;4.50;;;2.27;;
21352;SDS011;10834;52.268;6.770;2023-12-28T04:39:43;5.77;;;2.73;;
21352;SDS011;10834;52.268;6.770;2023-12-28T04:42:27;6.10;;;2.87;;
21352;SDS011;10834;52.268;6.770;2023-12-28T04:45:11;7.67;;;2.77;;
21352;SDS011;10834;52.268;6.770;2023-12-28T04:47:55;4.63;;;3.10;;
21352;SDS011;10834;52.268;6.770;2023-12-28T04:50:39;6.50;;;2.43;;
21352;SDS011;10834;52.268;6.770;2023-12-28T04:53:23;3.10;;;2.53;;
21352;SDS011;10834;52.268;6.770;2023-12-28T04:56:07;6.30;;;2.90;;
21352;SDS011;10834;52.268;6.770;2023-12-28T04:58:51;5.63;;;3.20;;
21352;SDS011;10834;52.268;6.770;2023-12-28T05:01:40;4.63;;;2.80;;
21352;SDS011;10834;52.268;6.770;2023-12-28T05:04:25;8.93;;;2.67;;
21352;SDS011;10834;52.268;6.770;2023-12-28T05:07:09;5.63;;;2.87;;
21352;SDS011;10834;52.268;6.770;2023-12-28T05:09:53;3.13;;;2.77;;
21352;SDS011;10834;52.268;6.770;2023-12-28T05:12:37;3.87;;;2.43;;
21352;SDS011;10834;52.268;6.770;2023-12-28T05:15:21;7.37;;;2.63;;
21352;SDS011;10834;52.268;6.770;2023-12-28T05:18:06;4.73;;;2.97;;
21352;SDS011;10834;52.268;6.770;2023-12-28T05:20:52;4.53;;;2.50;;
21352;SDS011;10834;52.268;6.770;2023-12-28T05:23:36;6.63;;;2.53;;
21352;SDS011;10834;52.268;6.770;2023-12-28T05:26:20;4.23;;;2.27;;
21352;SDS011;10834;52.268;6.770;2023-12-28T05:29:04;6.23;;;3.03;;
21352;SDS011;10834;52.268;6.770;2023-12-28T05:31:49;6.57;;;2.63;;
21352;SDS011;10834;52.268;6.770;2023-12-28T05:34:33;4.80;;;2.60;;
21352;SDS011;10834;52.268;6.770;2023-12-28T05:37:17;4.10;;;2.13;;
21352;SDS011;10834;52.268;6.770;2023-12-28T05:40:01;5.07;;;2.60;;
21352;SDS011;10834;52.268;6.770;2023-12-28T05:42:46;6.40;;;2.70;;
21352;SDS011;10834;52.268;6.770;2023-12-28T05:45:29;8.27;;;2.73;;
21352;SDS011;10834;52.268;6.770;2023-12-28T05:48:14;7.27;;;2.23;;
21352;SDS011;10834;52.268;6.770;2023-12-28T05:50:58;8.13;;;3.27;;
21352;SDS011;10834;52.268;6.770;2023-12-28T05:53:43;3.23;;;2.40;;
21352;SDS011;10834;52.268;6.770;2023-12-28T05:56:27;6.80;;;2.40;;
21352;SDS011;10834;52.268;6.770;2023-12-28T05:59:11;4.57;;;2.63;;
21352;SDS011;10834;52.268;6.770;2023-12-28T06:01:55;3.83;;;1.90;;
21352;SDS011;10834;52.268;6.770;2023-12-28T06:04:39;7.30;;;2.43;;
21352;SDS011;10834;52.268;6.770;2023-12-28T06:07:23;3.80;;;2.00;;
21352;SDS011;10834;52.268;6.770;2023-12-28T06:10:07;4.03;;;2.03;;
21352;SDS011;10834;52.268;6.770;2023-12-28T06:12:52;6.97;;;2.53;;
21352;SDS011;10834;52.268;6.770;2023-12-28T06:15:36;5.90;;;2.30;;
21352;SDS011;10834;52.268;6.770;2023-12-28T06:18:20;4.80;;;2.20;;
21352;SDS011;10834;52.268;6.770;2023-12-28T06:21:05;4.43;;;2.30;;
21352;SDS011;10834;52.268;6.770;2023-12-28T06:23:51;5.57;;;2.00;;
21352;SDS011;10834;52.268;6.770;2023-12-28T06:26:38;4.13;;;2.20;;
21352;SDS011;10834;52.268;6.770;2023-12-28T06:29:27;6.50;;;2.30;;
21352;SDS011;10834;52.268;6.770;2023-12-28T06:32:11;4.20;;;2.20;;
21352;SDS011;10834;52.268;6.770;2023-12-28T06:34:55;6.17;;;2.50;;
21352;SDS011;10834;52.268;6.770;2023-12-28T06:37:40;8.83;;;2.40;;
21352;SDS011;10834;52.268;6.770;2023-12-28T06:40:26;6.57;;;2.20;;
21352;SDS011;10834;52.268;6.770;2023-12-28T06:43:10;6.47;;;1.90;;
21352;SDS011;10834;52.268;6.770;2023-12-28T06:45:54;3.03;;;1.87;;
21352;SDS011;10834;52.268;6.770;2023-12-28T06:48:38;3.30;;;1.63;;
21352;SDS011;10834;52.268;6.770;2023-12-28T06:51:25;8.50;;;2.10;;
21352;SDS011;10834;52.268;6.770;2023-12-28T06:54:10;9.17;;;2.73;;
21352;SDS011;10834;52.268;6.770;2023-12-28T06:56:54;6.90;;;3.37;;
21352;SDS011;10834;52.268;6.770;2023-12-28T06:59:38;8.67;;;2.47;;
21352;SDS011;10834;52.268;6.770;2023-12-28T07:02:22;6.97;;;2.53;;
21352;SDS011;10834;52.268;6.770;2023-12-28T07:05:06;6.63;;;2.10;;
21352;SDS011;10834;52.268;6.770;2023-12-28T07:07:51;6.20;;;2.53;;
21352;SDS011;10834;52.268;6.770;2023-12-28T07:10:35;6.30;;;1.90;;
21352;SDS011;10834;52.268;6.770;2023-12-28T07:13:19;9.57;;;2.20;;
21352;SDS011;10834;52.268;6.770;2023-12-28T07:16:03;10.37;;;3.13;;
21352;SDS011;10834;52.268;6.770;2023-12-28T07:18:48;9.57;;;1.90;;
21352;SDS011;10834;52.268;6.770;2023-12-28T07:21:32;10.73;;;2.87;;
21352;SDS011;10834;52.268;6.770;2023-12-28T07:24:16;9.90;;;2.50;;
21352;SDS011;10834;52.268;6.770;2023-12-28T07:27:01;6.27;;;1.80;;
21352;SDS011;10834;52.268;6.770;2023-12-28T07:29:45;6.93;;;2.27;;
21352;SDS011;10834;52.268;6.770;2023-12-28T07:32:29;5.13;;;1.83;;
21352;SDS011;10834;52.268;6.770;2023-12-28T07:35:13;9.33;;;3.00;;
21352;SDS011;10834;52.268;6.770;2023-12-28T07:37:58;13.10;;;2.70;;
21352;SDS011;10834;52.268;6.770;2023-12-28T07:40:42;5.27;;;1.80;;
21352;SDS011;10834;52.268;6.770;2023-12-28T07:43:26;9.43;;;2.83;;
21352;SDS011;10834;52.268;6.770;2023-12-28T07:46:11;8.30;;;1.93;;
21352;SDS011;10834;52.268;6.770;2023-12-28T07:48:56;9.60;;;2.20;;
21352;SDS011;10834;52.268;6.770;2023-12-28T07:51:40;10.67;;;2.50;;
21352;SDS011;10834;52.268;6.770;2023-12-28T07:54:24;6.03;;;2.13;;
21352;SDS011;10834;52.268;6.770;2023-12-28T07:57:08;6.33;;;2.03;;
21352;SDS011;10834;52.268;6.770;2023-12-28T07:59:52;4.30;;;2.07;;
21352;SDS011;10834;52.268;6.770;2023-12-28T08:02:36;8.63;;;2.30;;
21352;SDS011;10834;52.268;6.770;2023-12-28T08:05:20;5.87;;;1.83;;
21352;SDS011;10834;52.268;6.770;2023-12-28T08:08:04;10.60;;;2.00;;
21352;SDS011;10834;52.268;6.770;2023-12-28T08:10:49;7.83;;;1.97;;
21352;SDS011;10834;52.268;6.770;2023-12-28T08:13:33;8.97;;;2.13;;
21352;SDS011;10834;52.268;6.770;2023-12-28T08:16:17;10.23;;;2.60;;
21352;SDS011;10834;52.268;6.770;2023-12-28T08:19:01;7.90;;;2.57;;
21352;SDS011;10834;52.268;6.770;2023-12-28T08:21:46;11.17;;;2.13;;
21352;SDS011;10834;52.268;6.770;2023-12-28T08:24:30;8.90;;;2.23;;
21352;SDS011;10834;52.268;6.770;2023-12-28T08:27:14;14.17;;;1.87;;
21352;SDS011;10834;52.268;6.770;2023-12-28T08:29:58;8.70;;;2.30;;
21352;SDS011;10834;52.268;6.770;2023-12-28T08:32:42;11.40;;;1.70;;
21352;SDS011;10834;52.268;6.770;2023-12-28T08:35:26;14.30;;;2.73;;
21352;SDS011;10834;52.268;6.770;2023-12-28T08:38:11;8.93;;;2.20;;
21352;SDS011;10834;52.268;6.770;2023-12-28T08:40:55;9.40;;;2.30;;
21352;SDS011;10834;52.268;6.770;2023-12-28T08:43:39;14.07;;;2.40;;
21352;SDS011;10834;52.268;6.770;2023-12-28T08:46:23;9.60;;;1.93;;
21352;SDS011;10834;52.268;6.770;2023-12-28T08:49:08;8.70;;;2.37;;
21352;SDS011;10834;52.268;6.770;2023-12-28T08:51:52;11.40;;;3.00;;
21352;SDS011;10834;52.268;6.770;2023-12-28T08:54:36;13.83;;;2.13;;
21352;SDS011;10834;52.268;6.770;2023-12-28T08:57:20;13.50;;;2.50;;
21352;SDS011;10834;52.268;6.770;2023-12-28T09:00:05;13.23;;;2.03;;
21352;SDS011;10834;52.268;6.770;2023-12-28T09:02:50;6.17;;;2.10;;
21352;SDS011;10834;52.268;6.770;2023-12-28T09:05:35;7.97;;;2.10;;
21352;SDS011;10834;52.268;6.770;2023-12-28T09:08:19;11.60;;;2.00;;
21352;SDS011;10834;52.268;6.770;2023-12-28T09:11:03;8.27;;;2.13;;
21352;SDS011;10834;52.268;6.770;2023-12-28T09:13:47;12.57;;;2.83;;
21352;SDS011;10834;52.268;6.770;2023-12-28T09:16:31;19.87;;;4.77;;
21352;SDS011;10834;52.268;6.770;2023-12-28T09:19:15;14.13;;;3.20;;
21352;SDS011;10834;52.268;6.770;2023-12-28T09:21:59;14.07;;;3.30;;
21352;SDS011;10834;52.268;6.770;2023-12-28T09:24:43;13.70;;;2.53;;
21352;SDS011;10834;52.268;6.770;2023-12-28T09:27:28;10.13;;;3.43;;
21352;SDS011;10834;52.268;6.770;2023-12-28T09:30:12;18.73;;;2.37;;
21352;SDS011;10834;52.268;6.770;2023-12-28T09:32:57;5.83;;;2.07;;
21352;SDS011;10834;52.268;6.770;2023-12-28T09:35:42;11.50;;;2.50;;
21352;SDS011;10834;52.268;6.770;2023-12-28T09:38:26;9.57;;;2.33;;
21352;SDS011;10834;52.268;6.770;2023-12-28T09:41:12;13.07;;;3.03;;
21352;SDS011;10834;52.268;6.770;2023-12-28T09:44:11;17.03;;;2.90;;
21352;SDS011;10834;52.268;6.770;2023-12-28T09:46:56;12.27;;;2.33;;
21352;SDS011;10834;52.268;6.770;2023-12-28T09:49:41;16.17;;;4.40;;
21352;SDS011;10834;52.268;6.770;2023-12-28T09:52:26;10.07;;;2.77;;
21352;SDS011;10834;52.268;6.770;2023-12-28T09:55:10;10.07;;;2.33;;
21352;SDS011;10834;52.268;6.770;2023-12-28T09:57:55;9.73;;;2.40;;
21352;SDS011;10834;52.268;6.770;2023-12-28T10:00:42;14.67;;;3.67;;
21352;SDS011;10834;52.268;6.770;2023-12-28T10:03:28;14.27;;;2.70;;
21352;SDS011;10834;52.268;6.770;2023-12-28T10:06:12;20.13;;;3.90;;
21352;SDS011;10834;52.268;6.770;2023-12-28T10:08:58;14.03;;;2.57;;
21352;SDS011;10834;52.268;6.770;2023-12-28T10:11:43;10.00;;;2.40;;
21352;SDS011;10834;52.268;6.770;2023-12-28T10:14:27;8.87;;;2.47;;
21352;SDS011;10834;52.268;6.770;2023-12-28T10:17:11;9.93;;;2.57;;
21352;SDS011;10834;52.268;6.770;2023-12-28T10:19:55;11.50;;;2.23;;
21352;SDS011;10834;52.268;6.770;2023-12-28T10:22:46;12.37;;;2.50;;
21352;SDS011;10834;52.268;6.770;2023-12-28T10:25:31;15.17;;;2.20;;
21352;SDS011;10834;52.268;6.770;2023-12-28T10:28:16;15.33;;;2.67;;
21352;SDS011;10834;52.268;6.770;2023-12-28T10:31:03;12.00;;;2.40;;
21352;SDS011;10834;52.268;6.770;2023-12-28T10:33:48;12.37;;;2.17;;
21352;SDS011;10834;52.268;6.770;2023-12-28T10:36:32;14.53;;;2.33;;
21352;SDS011;10834;52.268;6.770;2023-12-28T10:39:19;9.63;;;2.67;;
21352;SDS011;10834;52.268;6.770;2023-12-28T10:42:04;17.60;;;2.67;;
21352;SDS011;10834;52.268;6.770;2023-12-28T10:44:53;13.67;;;2.00;;
21352;SDS011;10834;52.268;6.770;2023-12-28T10:47:43;15.00;;;4.63;;
21352;SDS011;10834;52.268;6.770;2023-12-28T10:50:37;15.00;;;2.47;;
21352;SDS011;10834;52.268;6.770;2023-12-28T10:53:33;19.23;;;2.80;;
21352;SDS011;10834;52.268;6.770;2023-12-28T10:56:33;11.37;;;2.07;;
21352;SDS011;10834;52.268;6.770;2023-12-28T11:00:25;16.00;;;3.07;;
21352;SDS011;10834;52.268;6.770;2023-12-28T11:02:39;15.10;;;2.50;;
21352;SDS011;10834;52.268;6.770;2023-12-28T11:05:27;14.40;;;1.60;;
21352;SDS011;10834;52.268;6.770;2023-12-28T11:08:13;16.80;;;2.43;;
21352;SDS011;10834;52.268;6.770;2023-12-28T11:10:59;7.60;;;1.97;;
21352;SDS011;10834;52.268;6.770;2023-12-28T11:13:45;15.83;;;2.73;;
21352;SDS011;10834;52.268;6.770;2023-12-28T11:16:30;10.00;;;2.77;;
21352;SDS011;10834;52.268;6.770;2023-12-28T11:19:17;14.80;;;2.60;;
21352;SDS011;10834;52.268;6.770;2023-12-28T11:22:02;9.03;;;2.30;;
21352;SDS011;10834;52.268;6.770;2023-12-28T11:24:48;12.20;;;2.30;;
21352;SDS011;10834;52.268;6.770;2023-12-28T11:27:35;11.97;;;2.67;;
21352;SDS011;10834;52.268;6.770;2023-12-28T11:30:20;10.40;;;2.67;;
21352;SDS011;10834;52.268;6.770;2023-12-28T11:33:04;13.30;;;2.40;;
21352;SDS011;10834;52.268;6.770;2023-12-28T11:35:49;13.37;;;2.57;;
21352;SDS011;10834;52.268;6.770;2023-12-28T11:38:37;13.40;;;2.83;;
21352;SDS011;10834;52.268;6.770;2023-12-28T11:41:24;7.90;;;1.83;;
21352;SDS011;10834;52.268;6.770;2023-12-28T11:44:09;11.20;;;2.07;;
21352;SDS011;10834;52.268;6.770;2023-12-28T11:46:55;15.10;;;4.20;;
21352;SDS011;10834;52.268;6.770;2023-12-28T11:49:40;10.83;;;2.70;;
21352;SDS011;10834;52.268;6.770;2023-12-28T11:52:28;13.53;;;2.47;;
21352;SDS011;10834;52.268;6.770;2023-12-28T11:55:20;13.07;;;2.20;;
21352;SDS011;10834;52.268;6.770;2023-12-28T11:58:06;12.57;;;3.37;;
21352;SDS011;10834;52.268;6.770;2023-12-28T12:00:50;16.83;;;3.10;;
21352;SDS011;10834;52.268;6.770;2023-12-28T12:03:34;15.00;;;2.47;;
21352;SDS011;10834;52.268;6.770;2023-12-28T12:06:19;18.97;;;3.23;;
21352;SDS011;10834;52.268;6.770;2023-12-28T12:09:03;9.87;;;3.23;;
21352;SDS011;10834;52.268;6.770;2023-12-28T12:11:47;11.90;;;2.30;;
21352;SDS011;10834;52.268;6.770;2023-12-28T12:14:32;9.83;;;2.40;;
21352;SDS011;10834;52.268;6.770;2023-12-28T12:17:18;15.90;;;2.90;;
21352;SDS011;10834;52.268;6.770;2023-12-28T12:20:02;11.83;;;2.60;;
21352;SDS011;10834;52.268;6.770;2023-12-28T12:22:47;16.13;;;2.80;;
21352;SDS011;10834;52.268;6.770;2023-12-28T12:25:33;18.87;;;2.33;;
21352;SDS011;10834;52.268;6.770;2023-12-28T12:28:17;15.67;;;2.87;;
21352;SDS011;10834;52.268;6.770;2023-12-28T12:31:01;12.27;;;2.13;;
21352;SDS011;10834;52.268;6.770;2023-12-28T12:33:46;11.63;;;3.20;;
21352;SDS011;10834;52.268;6.770;2023-12-28T12:36:31;13.10;;;2.83;;
21352;SDS011;10834;52.268;6.770;2023-12-28T12:39:15;18.50;;;2.73;;
21352;SDS011;10834;52.268;6.770;2023-12-28T12:41:59;15.57;;;3.20;;
21352;SDS011;10834;52.268;6.770;2023-12-28T12:44:43;11.57;;;2.23;;
21352;SDS011;10834;52.268;6.770;2023-12-28T12:47:34;11.80;;;2.43;;
21352;SDS011;10834;52.268;6.770;2023-12-28T12:50:18;15.10;;;2.37;;
21352;SDS011;10834;52.268;6.770;2023-12-28T12:53:06;9.37;;;2.53;;
21352;SDS011;10834;52.268;6.770;2023-12-28T12:55:54;11.83;;;2.50;;
21352;SDS011;10834;52.268;6.770;2023-12-28T12:58:38;10.10;;;2.03;;
21352;SDS011;10834;52.268;6.770;2023-12-28T13:01:23;14.07;;;2.40;;
21352;SDS011;10834;52.268;6.770;2023-12-28T13:04:08;11.57;;;2.40;;
21352;SDS011;10834;52.268;6.770;2023-12-28T13:06:52;18.10;;;3.63;;
21352;SDS011;10834;52.268;6.770;2023-12-28T13:09:36;14.30;;;2.70;;
21352;SDS011;10834;52.268;6.770;2023-12-28T13:12:20;15.20;;;4.33;;
21352;SDS011;10834;52.268;6.770;2023-12-28T13:15:05;11.43;;;4.10;;
21352;SDS011;10834;52.268;6.770;2023-12-28T13:17:49;6.00;;;2.30;;
21352;SDS011;10834;52.268;6.770;2023-12-28T13:20:33;12.03;;;2.40;;
21352;SDS011;10834;52.268;6.770;2023-12-28T13:23:18;13.80;;;3.17;;
21352;SDS011;10834;52.268;6.770;2023-12-28T13:26:02;11.13;;;3.27;;
21352;SDS011;10834;52.268;6.770;2023-12-28T13:28:47;17.97;;;3.20;;
21352;SDS011;10834;52.268;6.770;2023-12-28T13:31:31;12.63;;;2.73;;
21352;SDS011;10834;52.268;6.770;2023-12-28T13:34:16;13.27;;;2.83;;
21352;SDS011;10834;52.268;6.770;2023-12-28T13:37:02;15.87;;;2.77;;
21352;SDS011;10834;52.268;6.770;2023-12-28T13:39:46;20.67;;;3.00;;
21352;SDS011;10834;52.268;6.770;2023-12-28T13:42:31;19.73;;;3.30;;
21352;SDS011;10834;52.268;6.770;2023-12-28T13:45:15;9.33;;;2.57;;
21352;SDS011;10834;52.268;6.770;2023-12-28T13:47:59;16.00;;;3.23;;
21352;SDS011;10834;52.268;6.770;2023-12-28T13:50:43;11.83;;;4.20;;
21352;SDS011;10834;52.268;6.770;2023-12-28T13:53:27;14.87;;;2.60;;
21352;SDS011;10834;52.268;6.770;2023-12-28T13:56:11;13.40;;;2.83;;
21352;SDS011;10834;52.268;6.770;2023-12-28T13:58:56;11.90;;;2.57;;
21352;SDS011;10834;52.268;6.770;2023-12-28T14:01:40;11.80;;;2.43;;
21352;SDS011;10834;52.268;6.770;2023-12-28T14:04:25;12.53;;;2.57;;
21352;SDS011;10834;52.268;6.770;2023-12-28T14:07:09;17.80;;;3.10;;
21352;SDS011;10834;52.268;6.770;2023-12-28T14:09:53;9.83;;;2.67;;
21352;SDS011;10834;52.268;6.770;2023-12-28T14:12:37;6.13;;;2.13;;
21352;SDS011;10834;52.268;6.770;2023-12-28T14:15:21;14.03;;;2.90;;
21352;SDS011;10834;52.268;6.770;2023-12-28T14:18:06;17.77;;;3.00;;
21352;SDS011;10834;52.268;6.770;2023-12-28T14:20:52;10.97;;;2.30;;
21352;SDS011;10834;52.268;6.770;2023-12-28T14:23:36;14.53;;;2.40;;
21352;SDS011;10834;52.268;6.770;2023-12-28T14:26:21;16.57;;;4.73;;
21352;SDS011;10834;52.268;6.770;2023-12-28T14:29:06;12.50;;;2.50;;
21352;SDS011;10834;52.268;6.770;2023-12-28T14:31:51;8.80;;;3.17;;
21352;SDS011;10834;52.268;6.770;2023-12-28T14:34:36;18.40;;;2.23;;
21352;SDS011;10834;52.268;6.770;2023-12-28T14:37:20;16.30;;;2.23;;
21352;SDS011;10834;52.268;6.770;2023-12-28T14:40:04;16.93;;;3.03;;
21352;SDS011;10834;52.268;6.770;2023-12-28T14:42:49;12.53;;;2.50;;
21352;SDS011;10834;52.268;6.770;2023-12-28T14:45:33;12.80;;;2.47;;
21352;SDS011;10834;52.268;6.770;2023-12-28T14:48:17;11.13;;;2.03;;
21352;SDS011;10834;52.268;6.770;2023-12-28T14:51:02;12.17;;;2.70;;
21352;SDS011;10834;52.268;6.770;2023-12-28T14:53:47;11.07;;;2.47;;
21352;SDS011;10834;52.268;6.770;2023-12-28T14:56:32;14.97;;;3.20;;
21352;SDS011;10834;52.268;6.770;2023-12-28T14:59:16;13.27;;;2.63;;
21352;SDS011;10834;52.268;6.770;2023-12-28T15:02:00;12.10;;;3.23;;
21352;SDS011;10834;52.268;6.770;2023-12-28T15:04:44;12.70;;;3.33;;
21352;SDS011;10834;52.268;6.770;2023-12-28T15:07:28;10.63;;;2.53;;
21352;SDS011;10834;52.268;6.770;2023-12-28T15:10:12;13.03;;;3.27;;
21352;SDS011;10834;52.268;6.770;2023-12-28T15:12:57;12.20;;;2.93;;
21352;SDS011;10834;52.268;6.770;2023-12-28T15:15:41;15.40;;;2.63;;
21352;SDS011;10834;52.268;6.770;2023-12-28T15:18:26;14.30;;;2.50;;
21352;SDS011;10834;52.268;6.770;2023-12-28T15:21:11;15.67;;;2.67;;
21352;SDS011;10834;52.268;6.770;2023-12-28T15:23:56;19.40;;;3.50;;
21352;SDS011;10834;52.268;6.770;2023-12-28T15:26:40;17.80;;;2.73;;
21352;SDS011;10834;52.268;6.770;2023-12-28T15:29:26;17.63;;;4.37;;
21352;SDS011;10834;52.268;6.770;2023-12-28T15:32:10;15.23;;;2.30;;
21352;SDS011;10834;52.268;6.770;2023-12-28T15:34:54;18.33;;;2.90;;
21352;SDS011;10834;52.268;6.770;2023-12-28T15:37:38;15.57;;;2.80;;
21352;SDS011;10834;52.268;6.770;2023-12-28T15:40:22;16.83;;;2.53;;
21352;SDS011;10834;52.268;6.770;2023-12-28T15:43:06;8.90;;;3.37;;
21352;SDS011;10834;52.268;6.770;2023-12-28T15:46:02;17.13;;;3.57;;
21352;SDS011;10834;52.268;6.770;2023-12-28T15:48:47;11.27;;;2.60;;
21352;SDS011;10834;52.268;6.770;2023-12-28T15:51:31;11.37;;;2.23;;
21352;SDS011;10834;52.268;6.770;2023-12-28T15:54:15;9.30;;;2.50;;
21352;SDS011;10834;52.268;6.770;2023-12-28T15:56:59;11.87;;;2.57;;
21352;SDS011;10834;52.268;6.770;2023-12-28T15:59:43;10.50;;;2.70;;
21352;SDS011;10834;52.268;6.770;2023-12-28T16:02:27;10.53;;;2.77;;
21352;SDS011;10834;52.268;6.770;2023-12-28T16:05:11;11.93;;;2.17;;
21352;SDS011;10834;52.268;6.770;2023-12-28T16:07:56;13.70;;;2.73;;
21352;SDS011;10834;52.268;6.770;2023-12-28T16:10:40;15.07;;;2.70;;
21352;SDS011;10834;52.268;6.770;2023-12-28T16:13:24;17.97;;;3.07;;
21352;SDS011;10834;52.268;6.770;2023-12-28T16:16:09;16.47;;;3.03;;
21352;SDS011;10834;52.268;6.770;2023-12-28T16:18:54;11.83;;;2.80;;
21352;SDS011;10834;52.268;6.770;2023-12-28T16:21:39;13.17;;;3.10;;
21352;SDS011;10834;52.268;6.770;2023-12-28T16:24:24;12.53;;;3.10;;
21352;SDS011;10834;52.268;6.770;2023-12-28T16:27:08;14.57;;;3.47;;
21352;SDS011;10834;52.268;6.770;2023-12-28T16:29:52;15.30;;;3.10;;
21352;SDS011;10834;52.268;6.770;2023-12-28T16:32:36;18.10;;;2.33;;